sensor_id;sensor_type;location;lat;lon;timestamp;P1;durP1;ratioP1;P2;durP2;ratioP2
5923;SDS011;2987;50.884;14.818;2023-04-09T00:00:09;54.97;;;34.57;;
5923;SDS011;2987;50.884;14.818;2023-04-09T00:02:38;52.43;;;33.63;;
5923;SDS011;2987;50.884;14.818;2023-04-09T00:05:04;53.27;;;32.83;;
5923;SDS011;2987;50.884;14.818;2023-04-09T00:07:31;52.30;;;32.90;;
5923;SDS011;2987;50.884;14.818;2023-04-09T00:09:58;50.33;;;31.73;;
5923;SDS011;2987;50.884;14.818;2023-04-09T00:12:24;58.33;;;35.50;;
5923;SDS011;2987;50.884;14.818;2023-04-09T00:14:50;57.33;;;34.00;;
5923;SDS011;2987;50.884;14.818;2023-04-09T00:17:16;51.93;;;33.63;;
5923;SDS011;2987;50.884;14.818;2023-04-09T00:19:42;51.77;;;33.93;;
5923;SDS011;2987;50.884;14.818;2023-04-09T00:22:08;54.50;;;36.57;;
5923;SDS011;2987;50.884;14.818;2023-04-09T00:24:35;51.13;;;33.73;;
5923;SDS011;2987;50.884;14.818;2023-04-09T00:27:04;51.00;;;33.10;;
5923;SDS011;2987;50.884;14.818;2023-04-09T00:29:30;56.07;;;36.13;;
5923;SDS011;2987;50.884;14.818;2023-04-09T00:31:56;57.40;;;36.93;;
5923;SDS011;2987;50.884;14.818;2023-04-09T00:34:22;60.33;;;38.07;;
5923;SDS011;2987;50.884;14.818;2023-04-09T00:36:49;63.67;;;39.83;;
5923;SDS011;2987;50.884;14.818;2023-04-09T00:39:15;63.37;;;38.37;;
5923;SDS011;2987;50.884;14.818;2023-04-09T00:41:41;61.53;;;38.03;;
5923;SDS011;2987;50.884;14.818;2023-04-09T00:44:07;58.37;;;37.57;;
5923;SDS011;2987;50.884;14.818;2023-04-09T00:46:33;57.67;;;35.83;;
5923;SDS011;2987;50.884;14.818;2023-04-09T00:49:00;54.97;;;35.33;;
5923;SDS011;2987;50.884;14.818;2023-04-09T00:51:26;53.27;;;35.10;;
5923;SDS011;2987;50.884;14.818;2023-04-09T00:53:53;56.50;;;36.97;;
5923;SDS011;2987;50.884;14.818;2023-04-09T00:56:19;61.97;;;37.57;;
5923;SDS011;2987;50.884;14.818;2023-04-09T00:58:48;53.57;;;35.77;;
5923;SDS011;2987;50.884;14.818;2023-04-09T01:01:14;56.00;;;34.60;;
5923;SDS011;2987;50.884;14.818;2023-04-09T01:03:40;58.27;;;37.50;;
5923;SDS011;2987;50.884;14.818;2023-04-09T01:06:09;58.33;;;36.13;;
5923;SDS011;2987;50.884;14.818;2023-04-09T01:08:47;56.30;;;36.83;;
5923;SDS011;2987;50.884;14.818;2023-04-09T01:11:33;63.43;;;38.73;;
5923;SDS011;2987;50.884;14.818;2023-04-09T01:20:04;61.20;;;38.27;;
5923;SDS011;2987;50.884;14.818;2023-04-09T01:25:33;55.50;;;34.80;;
5923;SDS011;2987;50.884;14.818;2023-04-09T01:28:39;55.33;;;36.23;;
5923;SDS011;2987;50.884;14.818;2023-04-09T01:31:11;54.47;;;36.30;;
5923;SDS011;2987;50.884;14.818;2023-04-09T01:33:40;55.20;;;35.63;;
5923;SDS011;2987;50.884;14.818;2023-04-09T01:36:07;58.00;;;36.27;;
5923;SDS011;2987;50.884;14.818;2023-04-09T01:38:37;51.73;;;32.50;;
5923;SDS011;2987;50.884;14.818;2023-04-09T01:41:06;49.87;;;32.07;;
5923;SDS011;2987;50.884;14.818;2023-04-09T01:43:35;54.50;;;32.77;;
5923;SDS011;2987;50.884;14.818;2023-04-09T01:46:03;52.57;;;33.87;;
5923;SDS011;2987;50.884;14.818;2023-04-09T01:48:29;51.63;;;33.50;;
5923;SDS011;2987;50.884;14.818;2023-04-09T01:50:59;53.80;;;34.83;;
5923;SDS011;2987;50.884;14.818;2023-04-09T01:53:26;46.83;;;31.43;;
5923;SDS011;2987;50.884;14.818;2023-04-09T01:55:53;49.73;;;32.40;;
5923;SDS011;2987;50.884;14.818;2023-04-09T01:58:21;45.80;;;31.57;;
5923;SDS011;2987;50.884;14.818;2023-04-09T02:00:48;51.20;;;33.10;;
5923;SDS011;2987;50.884;14.818;2023-04-09T02:03:20;47.97;;;32.10;;
5923;SDS011;2987;50.884;14.818;2023-04-09T02:05:52;54.33;;;33.37;;
5923;SDS011;2987;50.884;14.818;2023-04-09T02:08:24;54.30;;;34.07;;
5923;SDS011;2987;50.884;14.818;2023-04-09T02:10:55;48.47;;;33.03;;
5923;SDS011;2987;50.884;14.818;2023-04-09T02:13:24;51.87;;;33.03;;
5923;SDS011;2987;50.884;14.818;2023-04-09T02:15:54;49.87;;;34.10;;
5923;SDS011;2987;50.884;14.818;2023-04-09T02:18:24;55.73;;;36.53;;
5923;SDS011;2987;50.884;14.818;2023-04-09T02:20:53;55.87;;;35.40;;
5923;SDS011;2987;50.884;14.818;2023-04-09T02:23:21;56.23;;;34.97;;
5923;SDS011;2987;50.884;14.818;2023-04-09T02:25:50;65.33;;;41.23;;
5923;SDS011;2987;50.884;14.818;2023-04-09T02:28:17;78.90;;;44.53;;
5923;SDS011;2987;50.884;14.818;2023-04-09T02:30:43;76.40;;;43.90;;
5923;SDS011;2987;50.884;14.818;2023-04-09T02:33:10;78.17;;;45.97;;
5923;SDS011;2987;50.884;14.818;2023-04-09T02:35:36;77.80;;;42.77;;
5923;SDS011;2987;50.884;14.818;2023-04-09T02:38:02;71.13;;;43.13;;
5923;SDS011;2987;50.884;14.818;2023-04-09T02:40:28;71.53;;;43.90;;
5923;SDS011;2987;50.884;14.818;2023-04-09T02:42:54;72.47;;;41.93;;
5923;SDS011;2987;50.884;14.818;2023-04-09T02:45:20;70.37;;;43.00;;
5923;SDS011;2987;50.884;14.818;2023-04-09T02:47:47;65.27;;;39.63;;
5923;SDS011;2987;50.884;14.818;2023-04-09T02:50:13;71.03;;;42.63;;
5923;SDS011;2987;50.884;14.818;2023-04-09T02:52:46;62.67;;;38.83;;
5923;SDS011;2987;50.884;14.818;2023-04-09T02:55:12;62.50;;;40.63;;
5923;SDS011;2987;50.884;14.818;2023-04-09T02:57:39;62.40;;;37.70;;
5923;SDS011;2987;50.884;14.818;2023-04-09T03:00:06;61.83;;;40.37;;
5923;SDS011;2987;50.884;14.818;2023-04-09T03:02:33;57.30;;;37.70;;
5923;SDS011;2987;50.884;14.818;2023-04-09T03:04:59;60.00;;;38.90;;
5923;SDS011;2987;50.884;14.818;2023-04-09T03:07:25;62.20;;;38.23;;
5923;SDS011;2987;50.884;14.818;2023-04-09T03:09:51;60.70;;;39.00;;
5923;SDS011;2987;50.884;14.818;2023-04-09T03:12:18;63.47;;;40.17;;
5923;SDS011;2987;50.884;14.818;2023-04-09T03:14:44;61.13;;;39.73;;
5923;SDS011;2987;50.884;14.818;2023-04-09T03:17:13;59.97;;;37.40;;
5923;SDS011;2987;50.884;14.818;2023-04-09T03:19:40;54.67;;;34.13;;
5923;SDS011;2987;50.884;14.818;2023-04-09T03:22:06;52.20;;;33.13;;
5923;SDS011;2987;50.884;14.818;2023-04-09T03:24:32;51.83;;;33.47;;
5923;SDS011;2987;50.884;14.818;2023-04-09T03:27:01;49.63;;;32.50;;
5923;SDS011;2987;50.884;14.818;2023-04-09T03:29:29;54.43;;;35.87;;
5923;SDS011;2987;50.884;14.818;2023-04-09T03:31:56;55.93;;;36.00;;
5923;SDS011;2987;50.884;14.818;2023-04-09T03:34:22;50.77;;;33.17;;
5923;SDS011;2987;50.884;14.818;2023-04-09T03:36:52;50.30;;;33.00;;
5923;SDS011;2987;50.884;14.818;2023-04-09T03:39:23;52.93;;;34.47;;
5923;SDS011;2987;50.884;14.818;2023-04-09T03:41:50;52.60;;;34.93;;
5923;SDS011;2987;50.884;14.818;2023-04-09T03:44:17;53.80;;;35.80;;
5923;SDS011;2987;50.884;14.818;2023-04-09T03:47:03;52.37;;;34.67;;
5923;SDS011;2987;50.884;14.818;2023-04-09T03:49:30;53.87;;;34.63;;
5923;SDS011;2987;50.884;14.818;2023-04-09T03:52:05;54.47;;;35.20;;
5923;SDS011;2987;50.884;14.818;2023-04-09T03:54:36;52.97;;;34.13;;
5923;SDS011;2987;50.884;14.818;2023-04-09T03:57:25;46.67;;;32.40;;
5923;SDS011;2987;50.884;14.818;2023-04-09T03:59:53;50.73;;;32.60;;
5923;SDS011;2987;50.884;14.818;2023-04-09T04:02:21;50.70;;;32.83;;
5923;SDS011;2987;50.884;14.818;2023-04-09T04:04:56;53.73;;;34.30;;
5923;SDS011;2987;50.884;14.818;2023-04-09T04:07:27;56.07;;;34.73;;
5923;SDS011;2987;50.884;14.818;2023-04-09T04:09:58;57.00;;;36.43;;
5923;SDS011;2987;50.884;14.818;2023-04-09T04:12:24;53.63;;;35.70;;
5923;SDS011;2987;50.884;14.818;2023-04-09T04:15:10;57.43;;;36.37;;
5923;SDS011;2987;50.884;14.818;2023-04-09T04:17:45;56.03;;;34.53;;
5923;SDS011;2987;50.884;14.818;2023-04-09T04:20:20;50.97;;;33.63;;
5923;SDS011;2987;50.884;14.818;2023-04-09T04:22:57;48.60;;;32.80;;
5923;SDS011;2987;50.884;14.818;2023-04-09T04:25:25;50.27;;;33.33;;
5923;SDS011;2987;50.884;14.818;2023-04-09T04:27:52;53.80;;;35.63;;
5923;SDS011;2987;50.884;14.818;2023-04-09T04:30:22;51.63;;;35.40;;
5923;SDS011;2987;50.884;14.818;2023-04-09T04:32:57;51.37;;;33.77;;
5923;SDS011;2987;50.884;14.818;2023-04-09T04:35:43;53.07;;;33.30;;
5923;SDS011;2987;50.884;14.818;2023-04-09T04:38:25;49.93;;;32.33;;
5923;SDS011;2987;50.884;14.818;2023-04-09T04:40:52;45.97;;;30.87;;
5923;SDS011;2987;50.884;14.818;2023-04-09T04:43:19;48.77;;;31.77;;
5923;SDS011;2987;50.884;14.818;2023-04-09T04:45:46;51.90;;;32.60;;
5923;SDS011;2987;50.884;14.818;2023-04-09T04:48:12;52.00;;;33.57;;
5923;SDS011;2987;50.884;14.818;2023-04-09T04:50:38;50.43;;;33.00;;
5923;SDS011;2987;50.884;14.818;2023-04-09T04:53:08;54.87;;;34.30;;
5923;SDS011;2987;50.884;14.818;2023-04-09T04:55:42;55.63;;;33.60;;
5923;SDS011;2987;50.884;14.818;2023-04-09T04:58:12;51.10;;;33.10;;
5923;SDS011;2987;50.884;14.818;2023-04-09T05:00:44;53.47;;;33.77;;
5923;SDS011;2987;50.884;14.818;2023-04-09T05:03:12;56.80;;;34.70;;
5923;SDS011;2987;50.884;14.818;2023-04-09T05:05:52;55.57;;;35.23;;
5923;SDS011;2987;50.884;14.818;2023-04-09T05:08:18;56.37;;;36.00;;
5923;SDS011;2987;50.884;14.818;2023-04-09T05:10:48;55.30;;;35.10;;
5923;SDS011;2987;50.884;14.818;2023-04-09T05:13:17;51.37;;;33.90;;
5923;SDS011;2987;50.884;14.818;2023-04-09T05:15:44;54.77;;;34.57;;
5923;SDS011;2987;50.884;14.818;2023-04-09T05:18:11;55.60;;;34.93;;
5923;SDS011;2987;50.884;14.818;2023-04-09T05:20:38;52.60;;;33.43;;
5923;SDS011;2987;50.884;14.818;2023-04-09T05:23:07;52.67;;;34.60;;
5923;SDS011;2987;50.884;14.818;2023-04-09T05:25:42;52.43;;;33.90;;
5923;SDS011;2987;50.884;14.818;2023-04-09T05:28:19;53.03;;;34.27;;
5923;SDS011;2987;50.884;14.818;2023-04-09T05:30:51;50.77;;;32.83;;
5923;SDS011;2987;50.884;14.818;2023-04-09T05:33:17;54.70;;;34.17;;
5923;SDS011;2987;50.884;14.818;2023-04-09T05:35:44;53.57;;;35.33;;
5923;SDS011;2987;50.884;14.818;2023-04-09T05:38:10;49.53;;;33.47;;
5923;SDS011;2987;50.884;14.818;2023-04-09T05:40:39;52.40;;;33.97;;
5923;SDS011;2987;50.884;14.818;2023-04-09T05:43:10;50.13;;;32.83;;
5923;SDS011;2987;50.884;14.818;2023-04-09T05:45:40;50.13;;;33.37;;
5923;SDS011;2987;50.884;14.818;2023-04-09T05:48:06;48.67;;;31.80;;
5923;SDS011;2987;50.884;14.818;2023-04-09T05:50:33;50.17;;;34.47;;
5923;SDS011;2987;50.884;14.818;2023-04-09T05:52:59;48.93;;;33.37;;
5923;SDS011;2987;50.884;14.818;2023-04-09T05:55:34;52.33;;;33.17;;
5923;SDS011;2987;50.884;14.818;2023-04-09T05:58:01;48.37;;;33.27;;
5923;SDS011;2987;50.884;14.818;2023-04-09T06:00:27;49.43;;;33.60;;
5923;SDS011;2987;50.884;14.818;2023-04-09T06:02:54;47.73;;;32.20;;
5923;SDS011;2987;50.884;14.818;2023-04-09T06:05:20;51.20;;;34.47;;
5923;SDS011;2987;50.884;14.818;2023-04-09T06:07:47;46.43;;;31.53;;
5923;SDS011;2987;50.884;14.818;2023-04-09T06:10:13;49.73;;;31.90;;
5923;SDS011;2987;50.884;14.818;2023-04-09T06:12:39;49.10;;;33.70;;
5923;SDS011;2987;50.884;14.818;2023-04-09T06:15:05;48.70;;;33.60;;
5923;SDS011;2987;50.884;14.818;2023-04-09T06:17:32;45.03;;;31.80;;
5923;SDS011;2987;50.884;14.818;2023-04-09T06:19:58;49.00;;;33.10;;
5923;SDS011;2987;50.884;14.818;2023-04-09T06:22:24;49.97;;;32.87;;
5923;SDS011;2987;50.884;14.818;2023-04-09T06:24:50;50.40;;;33.90;;
5923;SDS011;2987;50.884;14.818;2023-04-09T06:27:17;47.57;;;33.20;;
5923;SDS011;2987;50.884;14.818;2023-04-09T06:29:46;43.20;;;30.63;;
5923;SDS011;2987;50.884;14.818;2023-04-09T06:32:12;43.00;;;30.60;;
5923;SDS011;2987;50.884;14.818;2023-04-09T06:34:38;43.37;;;29.63;;
5923;SDS011;2987;50.884;14.818;2023-04-09T06:37:04;40.67;;;28.97;;
5923;SDS011;2987;50.884;14.818;2023-04-09T06:39:30;41.00;;;29.73;;
5923;SDS011;2987;50.884;14.818;2023-04-09T06:41:57;41.97;;;29.50;;
5923;SDS011;2987;50.884;14.818;2023-04-09T06:44:35;40.90;;;28.03;;
5923;SDS011;2987;50.884;14.818;2023-04-09T06:47:01;42.60;;;29.17;;
5923;SDS011;2987;50.884;14.818;2023-04-09T06:49:28;35.57;;;26.87;;
5923;SDS011;2987;50.884;14.818;2023-04-09T06:51:54;38.50;;;27.73;;
5923;SDS011;2987;50.884;14.818;2023-04-09T06:54:20;36.90;;;26.97;;
5923;SDS011;2987;50.884;14.818;2023-04-09T06:56:46;44.50;;;28.40;;
5923;SDS011;2987;50.884;14.818;2023-04-09T06:59:12;37.80;;;28.03;;
5923;SDS011;2987;50.884;14.818;2023-04-09T07:01:39;38.93;;;28.40;;
5923;SDS011;2987;50.884;14.818;2023-04-09T07:04:06;41.60;;;29.07;;
5923;SDS011;2987;50.884;14.818;2023-04-09T07:06:32;36.30;;;27.10;;
5923;SDS011;2987;50.884;14.818;2023-04-09T07:08:58;41.40;;;28.20;;
5923;SDS011;2987;50.884;14.818;2023-04-09T07:11:25;41.27;;;29.90;;
5923;SDS011;2987;50.884;14.818;2023-04-09T07:13:51;40.87;;;29.37;;
5923;SDS011;2987;50.884;14.818;2023-04-09T07:16:17;40.20;;;28.80;;
5923;SDS011;2987;50.884;14.818;2023-04-09T07:18:43;40.60;;;28.53;;
5923;SDS011;2987;50.884;14.818;2023-04-09T07:21:10;41.77;;;29.20;;
5923;SDS011;2987;50.884;14.818;2023-04-09T07:23:36;39.23;;;29.20;;
5923;SDS011;2987;50.884;14.818;2023-04-09T07:26:02;41.50;;;29.60;;
5923;SDS011;2987;50.884;14.818;2023-04-09T07:28:30;39.63;;;29.90;;
5923;SDS011;2987;50.884;14.818;2023-04-09T07:30:57;41.70;;;28.77;;
5923;SDS011;2987;50.884;14.818;2023-04-09T07:33:27;39.47;;;29.40;;
5923;SDS011;2987;50.884;14.818;2023-04-09T07:35:56;36.47;;;26.63;;
5923;SDS011;2987;50.884;14.818;2023-04-09T07:38:22;33.13;;;24.77;;
5923;SDS011;2987;50.884;14.818;2023-04-09T07:40:49;32.40;;;23.83;;
5923;SDS011;2987;50.884;14.818;2023-04-09T07:43:15;30.87;;;23.87;;
5923;SDS011;2987;50.884;14.818;2023-04-09T07:45:41;28.33;;;22.00;;
5923;SDS011;2987;50.884;14.818;2023-04-09T07:48:09;32.70;;;24.30;;
5923;SDS011;2987;50.884;14.818;2023-04-09T07:50:35;32.50;;;24.57;;
5923;SDS011;2987;50.884;14.818;2023-04-09T07:53:01;32.83;;;24.60;;
5923;SDS011;2987;50.884;14.818;2023-04-09T07:55:27;29.33;;;23.87;;
5923;SDS011;2987;50.884;14.818;2023-04-09T07:57:53;29.27;;;23.13;;
5923;SDS011;2987;50.884;14.818;2023-04-09T08:00:20;30.30;;;23.30;;
5923;SDS011;2987;50.884;14.818;2023-04-09T08:02:46;34.17;;;24.03;;
5923;SDS011;2987;50.884;14.818;2023-04-09T08:05:12;32.83;;;25.10;;
5923;SDS011;2987;50.884;14.818;2023-04-09T08:07:38;33.73;;;24.73;;
5923;SDS011;2987;50.884;14.818;2023-04-09T08:10:05;31.30;;;24.47;;
5923;SDS011;2987;50.884;14.818;2023-04-09T08:12:32;32.50;;;24.50;;
5923;SDS011;2987;50.884;14.818;2023-04-09T08:14:58;31.53;;;24.30;;
5923;SDS011;2987;50.884;14.818;2023-04-09T08:17:24;34.23;;;25.63;;
5923;SDS011;2987;50.884;14.818;2023-04-09T08:19:52;32.97;;;24.73;;
5923;SDS011;2987;50.884;14.818;2023-04-09T08:22:18;30.33;;;23.67;;
5923;SDS011;2987;50.884;14.818;2023-04-09T08:24:44;31.57;;;25.30;;
5923;SDS011;2987;50.884;14.818;2023-04-09T08:27:17;34.93;;;25.77;;
5923;SDS011;2987;50.884;14.818;2023-04-09T08:29:44;30.30;;;23.10;;
5923;SDS011;2987;50.884;14.818;2023-04-09T08:32:10;31.27;;;23.97;;
5923;SDS011;2987;50.884;14.818;2023-04-09T08:34:36;31.60;;;23.70;;
5923;SDS011;2987;50.884;14.818;2023-04-09T08:37:03;30.33;;;23.47;;
5923;SDS011;2987;50.884;14.818;2023-04-09T08:39:29;33.83;;;24.03;;
5923;SDS011;2987;50.884;14.818;2023-04-09T08:41:57;33.83;;;24.67;;
5923;SDS011;2987;50.884;14.818;2023-04-09T08:44:27;31.73;;;24.07;;
5923;SDS011;2987;50.884;14.818;2023-04-09T08:46:54;32.90;;;23.83;;
5923;SDS011;2987;50.884;14.818;2023-04-09T08:49:20;30.60;;;23.33;;
5923;SDS011;2987;50.884;14.818;2023-04-09T08:51:47;29.37;;;23.63;;
5923;SDS011;2987;50.884;14.818;2023-04-09T08:54:15;26.97;;;21.07;;
5923;SDS011;2987;50.884;14.818;2023-04-09T08:56:44;27.77;;;21.67;;
5923;SDS011;2987;50.884;14.818;2023-04-09T08:59:15;28.00;;;21.77;;
5923;SDS011;2987;50.884;14.818;2023-04-09T09:01:43;27.07;;;20.43;;
5923;SDS011;2987;50.884;14.818;2023-04-09T09:04:12;27.67;;;22.00;;
5923;SDS011;2987;50.884;14.818;2023-04-09T09:06:39;28.70;;;22.27;;
5923;SDS011;2987;50.884;14.818;2023-04-09T09:09:08;29.57;;;22.70;;
5923;SDS011;2987;50.884;14.818;2023-04-09T09:11:38;27.30;;;21.67;;
5923;SDS011;2987;50.884;14.818;2023-04-09T09:14:07;28.90;;;22.47;;
5923;SDS011;2987;50.884;14.818;2023-04-09T09:16:35;27.17;;;22.47;;
5923;SDS011;2987;50.884;14.818;2023-04-09T09:19:07;25.40;;;20.67;;
5923;SDS011;2987;50.884;14.818;2023-04-09T09:21:55;24.73;;;20.87;;
5923;SDS011;2987;50.884;14.818;2023-04-09T09:24:22;26.17;;;20.77;;
5923;SDS011;2987;50.884;14.818;2023-04-09T09:26:49;28.13;;;20.93;;
5923;SDS011;2987;50.884;14.818;2023-04-09T09:29:15;25.47;;;20.53;;
5923;SDS011;2987;50.884;14.818;2023-04-09T09:31:45;24.10;;;20.07;;
5923;SDS011;2987;50.884;14.818;2023-04-09T09:34:15;27.20;;;21.40;;
5923;SDS011;2987;50.884;14.818;2023-04-09T09:36:42;24.03;;;19.00;;
5923;SDS011;2987;50.884;14.818;2023-04-09T09:39:10;23.80;;;19.27;;
5923;SDS011;2987;50.884;14.818;2023-04-09T09:41:38;27.13;;;19.87;;
5923;SDS011;2987;50.884;14.818;2023-04-09T09:44:06;26.17;;;20.50;;
5923;SDS011;2987;50.884;14.818;2023-04-09T09:46:34;27.53;;;21.47;;
5923;SDS011;2987;50.884;14.818;2023-04-09T09:49:03;26.53;;;20.30;;
5923;SDS011;2987;50.884;14.818;2023-04-09T09:51:31;25.17;;;19.77;;
5923;SDS011;2987;50.884;14.818;2023-04-09T09:54:02;27.80;;;19.73;;
5923;SDS011;2987;50.884;14.818;2023-04-09T09:56:30;25.87;;;18.83;;
5923;SDS011;2987;50.884;14.818;2023-04-09T09:59:05;25.93;;;19.83;;
5923;SDS011;2987;50.884;14.818;2023-04-09T10:01:36;25.80;;;20.07;;
5923;SDS011;2987;50.884;14.818;2023-04-09T10:04:03;25.40;;;20.90;;
5923;SDS011;2987;50.884;14.818;2023-04-09T10:06:32;26.70;;;19.60;;
5923;SDS011;2987;50.884;14.818;2023-04-09T10:09:03;22.93;;;18.57;;
5923;SDS011;2987;50.884;14.818;2023-04-09T10:11:32;19.27;;;16.13;;
5923;SDS011;2987;50.884;14.818;2023-04-09T10:14:01;19.80;;;16.50;;
5923;SDS011;2987;50.884;14.818;2023-04-09T10:16:28;22.07;;;18.27;;
5923;SDS011;2987;50.884;14.818;2023-04-09T10:18:56;25.17;;;19.13;;
5923;SDS011;2987;50.884;14.818;2023-04-09T10:26:45;23.97;;;18.10;;
5923;SDS011;2987;50.884;14.818;2023-04-09T10:29:12;20.83;;;17.43;;
5923;SDS011;2987;50.884;14.818;2023-04-09T10:34:20;19.73;;;16.80;;
5923;SDS011;2987;50.884;14.818;2023-04-09T10:36:54;21.37;;;18.23;;
5923;SDS011;2987;50.884;14.818;2023-04-09T10:39:26;22.10;;;17.87;;
5923;SDS011;2987;50.884;14.818;2023-04-09T10:41:55;20.57;;;17.57;;
5923;SDS011;2987;50.884;14.818;2023-04-09T10:44:23;22.33;;;18.53;;
5923;SDS011;2987;50.884;14.818;2023-04-09T10:46:53;19.07;;;16.57;;
5923;SDS011;2987;50.884;14.818;2023-04-09T10:49:22;18.30;;;15.93;;
5923;SDS011;2987;50.884;14.818;2023-04-09T10:52:00;20.00;;;17.10;;
5923;SDS011;2987;50.884;14.818;2023-04-09T10:54:40;20.83;;;17.07;;
5923;SDS011;2987;50.884;14.818;2023-04-09T10:57:11;22.13;;;18.37;;
5923;SDS011;2987;50.884;14.818;2023-04-09T10:59:43;21.87;;;19.03;;
5923;SDS011;2987;50.884;14.818;2023-04-09T11:02:36;19.43;;;17.27;;
5923;SDS011;2987;50.884;14.818;2023-04-09T11:05:18;18.17;;;15.47;;
5923;SDS011;2987;50.884;14.818;2023-04-09T11:10:37;18.00;;;15.03;;
5923;SDS011;2987;50.884;14.818;2023-04-09T11:15:33;20.43;;;16.67;;
5923;SDS011;2987;50.884;14.818;2023-04-09T11:18:02;18.80;;;15.93;;
5923;SDS011;2987;50.884;14.818;2023-04-09T11:20:28;18.33;;;14.97;;
5923;SDS011;2987;50.884;14.818;2023-04-09T11:22:55;19.80;;;16.27;;
5923;SDS011;2987;50.884;14.818;2023-04-09T11:25:24;21.37;;;18.00;;
5923;SDS011;2987;50.884;14.818;2023-04-09T11:27:52;24.30;;;20.13;;
5923;SDS011;2987;50.884;14.818;2023-04-09T11:30:18;22.93;;;19.60;;
5923;SDS011;2987;50.884;14.818;2023-04-09T11:32:45;22.47;;;20.00;;
5923;SDS011;2987;50.884;14.818;2023-04-09T11:35:15;25.40;;;20.47;;
5923;SDS011;2987;50.884;14.818;2023-04-09T11:37:43;24.53;;;20.03;;
5923;SDS011;2987;50.884;14.818;2023-04-09T11:40:26;24.67;;;19.03;;
5923;SDS011;2987;50.884;14.818;2023-04-09T11:42:54;20.73;;;17.67;;
5923;SDS011;2987;50.884;14.818;2023-04-09T11:45:23;20.27;;;17.43;;
5923;SDS011;2987;50.884;14.818;2023-04-09T11:47:51;22.67;;;17.83;;
5923;SDS011;2987;50.884;14.818;2023-04-09T11:50:18;20.50;;;18.03;;
5923;SDS011;2987;50.884;14.818;2023-04-09T11:52:45;23.30;;;18.13;;
5923;SDS011;2987;50.884;14.818;2023-04-09T11:55:21;21.43;;;17.90;;
5923;SDS011;2987;50.884;14.818;2023-04-09T11:57:50;19.53;;;17.13;;
5923;SDS011;2987;50.884;14.818;2023-04-09T12:00:19;21.07;;;17.80;;
5923;SDS011;2987;50.884;14.818;2023-04-09T12:02:46;20.43;;;18.23;;
5923;SDS011;2987;50.884;14.818;2023-04-09T12:05:21;21.73;;;18.37;;
5923;SDS011;2987;50.884;14.818;2023-04-09T12:07:49;20.97;;;16.53;;
5923;SDS011;2987;50.884;14.818;2023-04-09T12:10:16;18.20;;;16.00;;
5923;SDS011;2987;50.884;14.818;2023-04-09T12:12:43;15.63;;;13.73;;
5923;SDS011;2987;50.884;14.818;2023-04-09T12:15:11;16.13;;;14.23;;
5923;SDS011;2987;50.884;14.818;2023-04-09T12:17:48;17.43;;;15.57;;
5923;SDS011;2987;50.884;14.818;2023-04-09T12:20:32;18.60;;;15.67;;
5923;SDS011;2987;50.884;14.818;2023-04-09T12:23:01;17.67;;;14.57;;
5923;SDS011;2987;50.884;14.818;2023-04-09T12:25:30;20.97;;;16.63;;
5923;SDS011;2987;50.884;14.818;2023-04-09T12:27:59;20.50;;;16.87;;
5923;SDS011;2987;50.884;14.818;2023-04-09T12:30:26;20.63;;;17.23;;
5923;SDS011;2987;50.884;14.818;2023-04-09T12:32:52;19.63;;;16.53;;
5923;SDS011;2987;50.884;14.818;2023-04-09T12:35:20;24.27;;;20.23;;
5923;SDS011;2987;50.884;14.818;2023-04-09T12:37:47;26.33;;;20.37;;
5923;SDS011;2987;50.884;14.818;2023-04-09T12:40:14;20.70;;;17.90;;
5923;SDS011;2987;50.884;14.818;2023-04-09T12:42:41;24.87;;;19.63;;
5923;SDS011;2987;50.884;14.818;2023-04-09T12:45:09;19.43;;;16.97;;
5923;SDS011;2987;50.884;14.818;2023-04-09T12:47:37;17.93;;;16.03;;
5923;SDS011;2987;50.884;14.818;2023-04-09T12:50:04;19.70;;;15.53;;
5923;SDS011;2987;50.884;14.818;2023-04-09T12:52:32;21.60;;;17.57;;
5923;SDS011;2987;50.884;14.818;2023-04-09T12:54:59;19.53;;;16.77;;
5923;SDS011;2987;50.884;14.818;2023-04-09T12:57:26;20.40;;;16.27;;
5923;SDS011;2987;50.884;14.818;2023-04-09T12:59:53;18.23;;;16.23;;
5923;SDS011;2987;50.884;14.818;2023-04-09T13:02:20;18.43;;;16.40;;
5923;SDS011;2987;50.884;14.818;2023-04-09T13:04:47;16.60;;;14.47;;
5923;SDS011;2987;50.884;14.818;2023-04-09T13:07:14;18.73;;;15.37;;
5923;SDS011;2987;50.884;14.818;2023-04-09T13:09:42;18.67;;;15.33;;
5923;SDS011;2987;50.884;14.818;2023-04-09T13:12:09;21.80;;;15.50;;
5923;SDS011;2987;50.884;14.818;2023-04-09T13:14:37;19.03;;;16.33;;
5923;SDS011;2987;50.884;14.818;2023-04-09T13:17:04;24.90;;;19.43;;
5923;SDS011;2987;50.884;14.818;2023-04-09T13:19:30;20.37;;;18.00;;
5923;SDS011;2987;50.884;14.818;2023-04-09T13:21:57;21.27;;;17.50;;
5923;SDS011;2987;50.884;14.818;2023-04-09T13:24:23;22.90;;;16.80;;
5923;SDS011;2987;50.884;14.818;2023-04-09T13:26:49;18.17;;;15.83;;
5923;SDS011;2987;50.884;14.818;2023-04-09T13:29:15;23.37;;;19.77;;
5923;SDS011;2987;50.884;14.818;2023-04-09T13:31:42;17.87;;;14.90;;
5923;SDS011;2987;50.884;14.818;2023-04-09T13:34:08;16.97;;;14.47;;
5923;SDS011;2987;50.884;14.818;2023-04-09T13:36:34;16.30;;;14.40;;
5923;SDS011;2987;50.884;14.818;2023-04-09T13:39:00;19.33;;;16.40;;
5923;SDS011;2987;50.884;14.818;2023-04-09T13:41:33;23.30;;;18.23;;
5923;SDS011;2987;50.884;14.818;2023-04-09T13:44:00;20.77;;;16.13;;
5923;SDS011;2987;50.884;14.818;2023-04-09T13:46:27;20.70;;;17.20;;
5923;SDS011;2987;50.884;14.818;2023-04-09T13:48:53;21.03;;;18.67;;
5923;SDS011;2987;50.884;14.818;2023-04-09T13:51:20;20.60;;;17.53;;
5923;SDS011;2987;50.884;14.818;2023-04-09T13:53:47;24.07;;;19.77;;
5923;SDS011;2987;50.884;14.818;2023-04-09T13:56:14;25.10;;;20.53;;
5923;SDS011;2987;50.884;14.818;2023-04-09T13:58:41;22.93;;;17.23;;
5923;SDS011;2987;50.884;14.818;2023-04-09T14:01:08;17.87;;;14.57;;
5923;SDS011;2987;50.884;14.818;2023-04-09T14:03:35;37.80;;;27.73;;
5923;SDS011;2987;50.884;14.818;2023-04-09T14:06:05;19.87;;;15.70;;
5923;SDS011;2987;50.884;14.818;2023-04-09T14:08:33;18.20;;;15.53;;
5923;SDS011;2987;50.884;14.818;2023-04-09T14:11:00;32.30;;;23.63;;
5923;SDS011;2987;50.884;14.818;2023-04-09T14:13:27;25.73;;;20.40;;
5923;SDS011;2987;50.884;14.818;2023-04-09T14:15:53;23.30;;;17.57;;
5923;SDS011;2987;50.884;14.818;2023-04-09T14:18:19;19.10;;;16.43;;
5923;SDS011;2987;50.884;14.818;2023-04-09T14:20:46;20.93;;;16.77;;
5923;SDS011;2987;50.884;14.818;2023-04-09T14:23:12;16.53;;;14.07;;
5923;SDS011;2987;50.884;14.818;2023-04-09T14:25:38;16.67;;;14.07;;
5923;SDS011;2987;50.884;14.818;2023-04-09T14:28:04;16.97;;;13.67;;
5923;SDS011;2987;50.884;14.818;2023-04-09T14:30:31;15.83;;;14.13;;
5923;SDS011;2987;50.884;14.818;2023-04-09T14:32:57;15.90;;;14.20;;
5923;SDS011;2987;50.884;14.818;2023-04-09T14:35:23;20.50;;;17.07;;
5923;SDS011;2987;50.884;14.818;2023-04-09T14:37:49;14.97;;;13.37;;
5923;SDS011;2987;50.884;14.818;2023-04-09T14:40:15;16.80;;;12.47;;
5923;SDS011;2987;50.884;14.818;2023-04-09T14:42:42;15.47;;;12.87;;
5923;SDS011;2987;50.884;14.818;2023-04-09T14:45:08;14.87;;;12.87;;
5923;SDS011;2987;50.884;14.818;2023-04-09T14:47:34;15.60;;;13.27;;
5923;SDS011;2987;50.884;14.818;2023-04-09T14:50:01;15.93;;;12.80;;
5923;SDS011;2987;50.884;14.818;2023-04-09T14:52:27;17.03;;;14.00;;
5923;SDS011;2987;50.884;14.818;2023-04-09T14:54:55;16.10;;;13.53;;
5923;SDS011;2987;50.884;14.818;2023-04-09T14:57:21;20.27;;;16.00;;
5923;SDS011;2987;50.884;14.818;2023-04-09T14:59:47;26.23;;;17.73;;
5923;SDS011;2987;50.884;14.818;2023-04-09T15:02:14;18.77;;;15.40;;